sensor_id;sensor_type;location;lat;lon;timestamp;P1;durP1;ratioP1;P2;durP2;ratioP2
22449;SDS011;11392;57.390;-2.468;2022-09-01T00:02:28;5.62;;;3.40;;
22449;SDS011;11392;57.390;-2.468;2022-09-01T00:04:56;6.50;;;3.95;;
22449;SDS011;11392;57.390;-2.468;2022-09-01T00:07:24;7.05;;;4.22;;
22449;SDS011;11392;57.390;-2.468;2022-09-01T00:09:52;5.70;;;4.35;;
22449;SDS011;11392;57.390;-2.468;2022-09-01T00:12:19;7.50;;;3.90;;
22449;SDS011;11392;57.390;-2.468;2022-09-01T00:14:48;4.22;;;3.40;;
22449;SDS011;11392;57.390;-2.468;2022-09-01T00:17:15;4.68;;;3.80;;
22449;SDS011;11392;57.390;-2.468;2022-09-01T00:19:42;5.70;;;3.33;;
22449;SDS011;11392;57.390;-2.468;2022-09-01T00:22:09;6.32;;;3.92;;
22449;SDS011;11392;57.390;-2.468;2022-09-01T00:24:36;5.20;;;3.78;;
22449;SDS011;11392;57.390;-2.468;2022-09-01T00:27:03;8.70;;;4.00;;
22449;SDS011;11392;57.390;-2.468;2022-09-01T00:29:30;4.97;;;3.85;;
22449;SDS011;11392;57.390;-2.468;2022-09-01T00:31:57;5.93;;;4.20;;
22449;SDS011;11392;57.390;-2.468;2022-09-01T00:34:24;14.23;;;4.10;;
22449;SDS011;11392;57.390;-2.468;2022-09-01T00:36:51;13.18;;;3.55;;
22449;SDS011;11392;57.390;-2.468;2022-09-01T00:39:18;14.48;;;3.50;;
22449;SDS011;11392;57.390;-2.468;2022-09-01T00:41:45;11.65;;;3.22;;
22449;SDS011;11392;57.390;-2.468;2022-09-01T00:44:14;12.43;;;3.03;;
22449;SDS011;11392;57.390;-2.468;2022-09-01T00:46:46;41.40;;;4.20;;
22449;SDS011;11392;57.390;-2.468;2022-09-01T00:52:13;27.52;;;4.43;;
22449;SDS011;11392;57.390;-2.468;2022-09-01T00:54:46;30.00;;;3.28;;
22449;SDS011;11392;57.390;-2.468;2022-09-01T00:57:18;19.55;;;3.40;;
22449;SDS011;11392;57.390;-2.468;2022-09-01T00:59:49;18.65;;;3.72;;
22449;SDS011;11392;57.390;-2.468;2022-09-01T01:02:21;15.77;;;3.20;;
22449;SDS011;11392;57.390;-2.468;2022-09-01T01:04:48;15.98;;;3.58;;
22449;SDS011;11392;57.390;-2.468;2022-09-01T01:07:18;21.10;;;3.50;;
22449;SDS011;11392;57.390;-2.468;2022-09-01T01:09:48;21.15;;;3.30;;
22449;SDS011;11392;57.390;-2.468;2022-09-01T01:12:16;27.02;;;3.35;;
22449;SDS011;11392;57.390;-2.468;2022-09-01T01:14:44;12.25;;;2.08;;
22449;SDS011;11392;57.390;-2.468;2022-09-01T01:17:17;10.57;;;1.95;;
22449;SDS011;11392;57.390;-2.468;2022-09-01T01:19:52;11.95;;;2.12;;
22449;SDS011;11392;57.390;-2.468;2022-09-01T01:25:29;9.25;;;2.12;;
22449;SDS011;11392;57.390;-2.468;2022-09-01T01:28:10;11.85;;;2.30;;
22449;SDS011;11392;57.390;-2.468;2022-09-01T01:30:47;10.23;;;2.10;;
22449;SDS011;11392;57.390;-2.468;2022-09-01T01:33:19;24.45;;;3.30;;
22449;SDS011;11392;57.390;-2.468;2022-09-01T01:35:50;21.60;;;2.75;;
22449;SDS011;11392;57.390;-2.468;2022-09-01T01:38:18;8.50;;;2.80;;
22449;SDS011;11392;57.390;-2.468;2022-09-01T01:40:48;23.67;;;3.15;;
22449;SDS011;11392;57.390;-2.468;2022-09-01T01:43:17;24.33;;;3.00;;
22449;SDS011;11392;57.390;-2.468;2022-09-01T01:45:49;10.07;;;2.03;;
22449;SDS011;11392;57.390;-2.468;2022-09-01T01:48:19;16.45;;;2.33;;
22449;SDS011;11392;57.390;-2.468;2022-09-01T01:50:49;6.60;;;1.60;;
22449;SDS011;11392;57.390;-2.468;2022-09-01T01:53:18;7.18;;;1.40;;
22449;SDS011;11392;57.390;-2.468;2022-09-01T01:55:46;6.57;;;1.60;;
22449;SDS011;11392;57.390;-2.468;2022-09-01T01:58:16;4.90;;;1.70;;
22449;SDS011;11392;57.390;-2.468;2022-09-01T02:00:46;4.65;;;1.50;;
22449;SDS011;11392;57.390;-2.468;2022-09-01T02:03:18;1.58;;;1.48;;
22449;SDS011;11392;57.390;-2.468;2022-09-01T02:05:48;2.05;;;1.65;;
22449;SDS011;11392;57.390;-2.468;2022-09-01T02:08:16;2.65;;;1.77;;
22449;SDS011;11392;57.390;-2.468;2022-09-01T02:10:48;2.33;;;1.90;;
22449;SDS011;11392;57.390;-2.468;2022-09-01T02:13:18;3.03;;;2.05;;
22449;SDS011;11392;57.390;-2.468;2022-09-01T02:15:49;2.65;;;2.15;;
22449;SDS011;11392;57.390;-2.468;2022-09-01T02:18:20;4.75;;;2.40;;
22449;SDS011;11392;57.390;-2.468;2022-09-01T02:20:50;3.83;;;2.28;;
22449;SDS011;11392;57.390;-2.468;2022-09-01T02:23:18;3.28;;;2.85;;
22449;SDS011;11392;57.390;-2.468;2022-09-01T02:25:52;3.03;;;2.20;;
22449;SDS011;11392;57.390;-2.468;2022-09-01T02:28:41;3.17;;;1.80;;
22449;SDS011;11392;57.390;-2.468;2022-09-01T02:31:10;16.33;;;2.10;;
22449;SDS011;11392;57.390;-2.468;2022-09-01T02:33:38;1.92;;;1.73;;
22449;SDS011;11392;57.390;-2.468;2022-09-01T02:36:11;3.00;;;1.95;;
22449;SDS011;11392;57.390;-2.468;2022-09-01T02:38:42;2.67;;;2.20;;
22449;SDS011;11392;57.390;-2.468;2022-09-01T02:41:19;3.12;;;2.22;;
22449;SDS011;11392;57.390;-2.468;2022-09-01T02:43:48;3.87;;;2.15;;
22449;SDS011;11392;57.390;-2.468;2022-09-01T02:46:16;6.18;;;2.33;;
22449;SDS011;11392;57.390;-2.468;2022-09-01T02:48:45;3.62;;;2.40;;
22449;SDS011;11392;57.390;-2.468;2022-09-01T02:51:17;2.97;;;2.10;;
22449;SDS011;11392;57.390;-2.468;2022-09-01T02:53:47;3.15;;;2.35;;
22449;SDS011;11392;57.390;-2.468;2022-09-01T02:56:22;3.62;;;2.58;;
22449;SDS011;11392;57.390;-2.468;2022-09-01T02:58:51;2.87;;;2.45;;
22449;SDS011;11392;57.390;-2.468;2022-09-01T03:01:28;3.80;;;2.45;;
22449;SDS011;11392;57.390;-2.468;2022-09-01T03:03:58;5.90;;;2.28;;
22449;SDS011;11392;57.390;-2.468;2022-09-01T03:06:31;3.47;;;2.12;;
22449;SDS011;11392;57.390;-2.468;2022-09-01T03:09:00;2.37;;;2.17;;
22449;SDS011;11392;57.390;-2.468;2022-09-01T03:11:29;3.12;;;2.20;;
22449;SDS011;11392;57.390;-2.468;2022-09-01T03:13:58;3.45;;;1.85;;
22449;SDS011;11392;57.390;-2.468;2022-09-01T03:16:25;3.17;;;1.60;;
22449;SDS011;11392;57.390;-2.468;2022-09-01T03:18:53;8.68;;;1.77;;
22449;SDS011;11392;57.390;-2.468;2022-09-01T03:21:20;1.62;;;1.35;;
22449;SDS011;11392;57.390;-2.468;2022-09-01T03:23:49;1.90;;;1.67;;
22449;SDS011;11392;57.390;-2.468;2022-09-01T03:26:18;2.20;;;1.75;;
22449;SDS011;11392;57.390;-2.468;2022-09-01T03:28:48;4.97;;;1.85;;
22449;SDS011;11392;57.390;-2.468;2022-09-01T03:31:16;2.75;;;1.87;;
22449;SDS011;11392;57.390;-2.468;2022-09-01T03:33:45;5.18;;;1.42;;
22449;SDS011;11392;57.390;-2.468;2022-09-01T03:36:12;3.75;;;1.40;;
22449;SDS011;11392;57.390;-2.468;2022-09-01T03:38:48;8.95;;;1.62;;
22449;SDS011;11392;57.390;-2.468;2022-09-01T03:41:18;7.37;;;1.40;;
22449;SDS011;11392;57.390;-2.468;2022-09-01T03:43:48;15.50;;;1.60;;
22449;SDS011;11392;57.390;-2.468;2022-09-01T03:46:16;8.77;;;1.10;;
22449;SDS011;11392;57.390;-2.468;2022-09-01T03:48:51;7.97;;;0.93;;
22449;SDS011;11392;57.390;-2.468;2022-09-01T03:51:21;1.30;;;0.88;;
22449;SDS011;11392;57.390;-2.468;2022-09-01T03:53:49;2.35;;;1.40;;
22449;SDS011;11392;57.390;-2.468;2022-09-01T03:56:21;3.72;;;1.40;;
22449;SDS011;11392;57.390;-2.468;2022-09-01T03:58:53;2.47;;;1.40;;
22449;SDS011;11392;57.390;-2.468;2022-09-01T04:01:22;2.92;;;1.87;;
22449;SDS011;11392;57.390;-2.468;2022-09-01T04:03:50;2.30;;;2.00;;
22449;SDS011;11392;57.390;-2.468;2022-09-01T04:06:17;2.90;;;1.70;;
22449;SDS011;11392;57.390;-2.468;2022-09-01T04:08:46;2.15;;;1.75;;
22449;SDS011;11392;57.390;-2.468;2022-09-01T04:11:15;3.47;;;1.60;;
22449;SDS011;11392;57.390;-2.468;2022-09-01T04:13:49;1.90;;;1.67;;
22449;SDS011;11392;57.390;-2.468;2022-09-01T04:16:17;3.92;;;1.50;;
22449;SDS011;11392;57.390;-2.468;2022-09-01T04:19:06;1.90;;;1.70;;
22449;SDS011;11392;57.390;-2.468;2022-09-01T04:21:46;1.98;;;1.40;;
22449;SDS011;11392;57.390;-2.468;2022-09-01T04:24:16;3.35;;;1.50;;
22449;SDS011;11392;57.390;-2.468;2022-09-01T04:26:44;7.03;;;1.58;;
22449;SDS011;11392;57.390;-2.468;2022-09-01T04:29:14;8.57;;;1.50;;
22449;SDS011;11392;57.390;-2.468;2022-09-01T04:31:44;4.35;;;1.45;;
22449;SDS011;11392;57.390;-2.468;2022-09-01T04:34:19;3.67;;;1.12;;
22449;SDS011;11392;57.390;-2.468;2022-09-01T04:36:48;2.72;;;1.65;;
22449;SDS011;11392;57.390;-2.468;2022-09-01T04:39:19;2.17;;;1.85;;
22449;SDS011;11392;57.390;-2.468;2022-09-01T04:41:47;3.40;;;1.90;;
22449;SDS011;11392;57.390;-2.468;2022-09-01T04:44:17;2.35;;;2.08;;
22449;SDS011;11392;57.390;-2.468;2022-09-01T04:46:45;2.62;;;2.05;;
22449;SDS011;11392;57.390;-2.468;2022-09-01T04:49:17;2.85;;;2.28;;
22449;SDS011;11392;57.390;-2.468;2022-09-01T04:51:48;4.87;;;3.22;;
22449;SDS011;11392;57.390;-2.468;2022-09-01T04:54:20;2.65;;;2.25;;
22449;SDS011;11392;57.390;-2.468;2022-09-01T04:56:50;3.67;;;2.70;;
22449;SDS011;11392;57.390;-2.468;2022-09-01T04:59:19;3.08;;;2.60;;
22449;SDS011;11392;57.390;-2.468;2022-09-01T05:01:47;3.50;;;2.42;;
22449;SDS011;11392;57.390;-2.468;2022-09-01T05:04:26;3.20;;;2.33;;
22449;SDS011;11392;57.390;-2.468;2022-09-01T05:06:59;3.10;;;2.05;;
22449;SDS011;11392;57.390;-2.468;2022-09-01T05:09:28;3.00;;;2.47;;
22449;SDS011;11392;57.390;-2.468;2022-09-01T05:11:57;3.25;;;2.42;;
22449;SDS011;11392;57.390;-2.468;2022-09-01T05:14:26;3.37;;;2.60;;
22449;SDS011;11392;57.390;-2.468;2022-09-01T05:16:57;6.43;;;2.92;;
22449;SDS011;11392;57.390;-2.468;2022-09-01T05:19:24;3.85;;;2.60;;
22449;SDS011;11392;57.390;-2.468;2022-09-01T05:21:55;5.45;;;2.30;;
22449;SDS011;11392;57.390;-2.468;2022-09-01T05:24:23;5.12;;;2.20;;
22449;SDS011;11392;57.390;-2.468;2022-09-01T05:26:57;11.00;;;1.87;;
22449;SDS011;11392;57.390;-2.468;2022-09-01T05:29:25;3.55;;;1.25;;
22449;SDS011;11392;57.390;-2.468;2022-09-01T05:31:54;4.05;;;1.17;;
22449;SDS011;11392;57.390;-2.468;2022-09-01T05:34:22;3.65;;;1.20;;
22449;SDS011;11392;57.390;-2.468;2022-09-01T05:36:53;2.12;;;1.30;;
22449;SDS011;11392;57.390;-2.468;2022-09-01T05:39:23;2.03;;;1.08;;
22449;SDS011;11392;57.390;-2.468;2022-09-01T05:41:51;5.32;;;1.08;;
22449;SDS011;11392;57.390;-2.468;2022-09-01T05:44:20;3.17;;;1.12;;
22449;SDS011;11392;57.390;-2.468;2022-09-01T05:46:50;3.62;;;1.05;;
22449;SDS011;11392;57.390;-2.468;2022-09-01T05:49:18;2.45;;;1.02;;
22449;SDS011;11392;57.390;-2.468;2022-09-01T05:51:47;1.83;;;0.93;;
22449;SDS011;11392;57.390;-2.468;2022-09-01T05:54:20;2.50;;;1.00;;
22449;SDS011;11392;57.390;-2.468;2022-09-01T05:56:50;2.00;;;0.70;;
22449;SDS011;11392;57.390;-2.468;2022-09-01T05:59:19;0.90;;;0.65;;
22449;SDS011;11392;57.390;-2.468;2022-09-01T06:01:51;1.55;;;0.90;;
22449;SDS011;11392;57.390;-2.468;2022-09-01T06:04:19;0.62;;;0.62;;
22449;SDS011;11392;57.390;-2.468;2022-09-01T06:06:47;3.12;;;1.25;;
22449;SDS011;11392;57.390;-2.468;2022-09-01T06:09:35;2.58;;;1.30;;
22449;SDS011;11392;57.390;-2.468;2022-09-01T06:12:03;2.20;;;1.42;;
22449;SDS011;11392;57.390;-2.468;2022-09-01T06:14:32;1.95;;;1.70;;
22449;SDS011;11392;57.390;-2.468;2022-09-01T06:16:59;1.60;;;1.50;;
22449;SDS011;11392;57.390;-2.468;2022-09-01T06:19:26;1.98;;;1.58;;
22449;SDS011;11392;57.390;-2.468;2022-09-01T06:21:55;2.08;;;1.60;;
22449;SDS011;11392;57.390;-2.468;2022-09-01T06:24:23;3.10;;;2.08;;
22449;SDS011;11392;57.390;-2.468;2022-09-01T06:26:50;2.65;;;1.90;;
22449;SDS011;11392;57.390;-2.468;2022-09-01T06:29:17;2.37;;;1.98;;
22449;SDS011;11392;57.390;-2.468;2022-09-01T06:31:46;3.75;;;2.25;;
22449;SDS011;11392;57.390;-2.468;2022-09-01T06:34:17;2.22;;;2.03;;
22449;SDS011;11392;57.390;-2.468;2022-09-01T06:36:45;1.73;;;1.62;;
22449;SDS011;11392;57.390;-2.468;2022-09-01T06:39:14;2.10;;;1.87;;
22449;SDS011;11392;57.390;-2.468;2022-09-01T06:41:49;2.08;;;1.87;;
22449;SDS011;11392;57.390;-2.468;2022-09-01T06:44:19;2.08;;;1.80;;
22449;SDS011;11392;57.390;-2.468;2022-09-01T06:46:49;1.80;;;1.70;;
22449;SDS011;11392;57.390;-2.468;2022-09-01T06:49:17;2.25;;;1.50;;
22449;SDS011;11392;57.390;-2.468;2022-09-01T06:51:47;2.90;;;2.10;;
22449;SDS011;11392;57.390;-2.468;2022-09-01T06:54:14;1.77;;;1.67;;
22449;SDS011;11392;57.390;-2.468;2022-09-01T06:56:46;2.03;;;1.65;;
22449;SDS011;11392;57.390;-2.468;2022-09-01T06:59:18;2.35;;;1.80;;
22449;SDS011;11392;57.390;-2.468;2022-09-01T07:01:45;1.50;;;1.40;;
22449;SDS011;11392;57.390;-2.468;2022-09-01T07:04:15;1.15;;;1.05;;
22449;SDS011;11392;57.390;-2.468;2022-09-01T07:06:45;2.08;;;1.48;;
22449;SDS011;11392;57.390;-2.468;2022-09-01T07:09:26;1.70;;;1.60;;
22449;SDS011;11392;57.390;-2.468;2022-09-01T07:12:14;1.62;;;1.40;;
22449;SDS011;11392;57.390;-2.468;2022-09-01T07:14:53;4.37;;;1.83;;
22449;SDS011;11392;57.390;-2.468;2022-09-01T07:17:42;1.48;;;1.37;;
22449;SDS011;11392;57.390;-2.468;2022-09-01T07:20:22;2.05;;;1.77;;
22449;SDS011;11392;57.390;-2.468;2022-09-01T07:22:51;2.78;;;1.70;;
22449;SDS011;11392;57.390;-2.468;2022-09-01T07:25:37;1.73;;;1.62;;
22449;SDS011;11392;57.390;-2.468;2022-09-01T07:28:27;1.70;;;1.60;;
22449;SDS011;11392;57.390;-2.468;2022-09-01T07:31:05;2.25;;;1.73;;
22449;SDS011;11392;57.390;-2.468;2022-09-01T07:33:54;3.03;;;1.92;;
22449;SDS011;11392;57.390;-2.468;2022-09-01T07:36:44;1.70;;;1.48;;
22449;SDS011;11392;57.390;-2.468;2022-09-01T07:39:31;1.92;;;1.73;;
22449;SDS011;11392;57.390;-2.468;2022-09-01T07:42:16;1.75;;;1.60;;
22449;SDS011;11392;57.390;-2.468;2022-09-01T07:45:07;2.33;;;1.70;;
22449;SDS011;11392;57.390;-2.468;2022-09-01T07:47:53;1.70;;;1.23;;
22449;SDS011;11392;57.390;-2.468;2022-09-01T07:50:21;1.87;;;1.48;;
22449;SDS011;11392;57.390;-2.468;2022-09-01T07:53:04;2.28;;;1.70;;
22449;SDS011;11392;57.390;-2.468;2022-09-01T07:55:31;1.77;;;1.67;;
22449;SDS011;11392;57.390;-2.468;2022-09-01T07:57:59;1.60;;;1.50;;
22449;SDS011;11392;57.390;-2.468;2022-09-01T08:00:26;2.10;;;1.55;;
22449;SDS011;11392;57.390;-2.468;2022-09-01T08:02:57;1.10;;;1.10;;
22449;SDS011;11392;57.390;-2.468;2022-09-01T08:05:24;1.58;;;1.48;;
22449;SDS011;11392;57.390;-2.468;2022-09-01T08:07:52;1.33;;;1.17;;
22449;SDS011;11392;57.390;-2.468;2022-09-01T08:10:20;1.50;;;1.30;;
22449;SDS011;11392;57.390;-2.468;2022-09-01T08:12:47;1.20;;;1.00;;
22449;SDS011;11392;57.390;-2.468;2022-09-01T08:15:21;1.33;;;1.23;;
22449;SDS011;11392;57.390;-2.468;2022-09-01T08:18:09;1.23;;;1.12;;
22449;SDS011;11392;57.390;-2.468;2022-09-01T08:20:39;1.50;;;1.10;;
22449;SDS011;11392;57.390;-2.468;2022-09-01T08:23:11;1.50;;;1.40;;
22449;SDS011;11392;57.390;-2.468;2022-09-01T08:25:41;1.42;;;1.33;;
22449;SDS011;11392;57.390;-2.468;2022-09-01T08:28:09;1.67;;;1.45;;
22449;SDS011;11392;57.390;-2.468;2022-09-01T08:30:37;2.50;;;1.25;;
22449;SDS011;11392;57.390;-2.468;2022-09-01T08:33:06;1.48;;;1.37;;
22449;SDS011;11392;57.390;-2.468;2022-09-01T08:35:37;2.80;;;1.70;;
22449;SDS011;11392;57.390;-2.468;2022-09-01T08:38:06;1.58;;;1.48;;
22449;SDS011;11392;57.390;-2.468;2022-09-01T08:40:33;1.77;;;1.55;;
22449;SDS011;11392;57.390;-2.468;2022-09-01T08:43:25;2.37;;;1.50;;
22449;SDS011;11392;57.390;-2.468;2022-09-01T08:45:54;1.92;;;1.30;;
22449;SDS011;11392;57.390;-2.468;2022-09-01T08:48:33;1.80;;;1.70;;
22449;SDS011;11392;57.390;-2.468;2022-09-01T08:51:31;1.52;;;1.42;;
22449;SDS011;11392;57.390;-2.468;2022-09-01T08:54:07;2.45;;;1.70;;
22449;SDS011;11392;57.390;-2.468;2022-09-01T08:56:58;1.45;;;1.35;;
22449;SDS011;11392;57.390;-2.468;2022-09-01T08:59:30;2.45;;;1.40;;
22449;SDS011;11392;57.390;-2.468;2022-09-01T09:05:08;1.60;;;1.50;;
22449;SDS011;11392;57.390;-2.468;2022-09-01T09:16:43;1.40;;;1.25;;
22449;SDS011;11392;57.390;-2.468;2022-09-01T09:21:52;2.83;;;1.23;;
22449;SDS011;11392;57.390;-2.468;2022-09-01T09:24:28;1.35;;;1.02;;
22449;SDS011;11392;57.390;-2.468;2022-09-01T09:27:25;1.42;;;1.33;;
22449;SDS011;11392;57.390;-2.468;2022-09-01T09:30:08;1.08;;;1.00;;
22449;SDS011;11392;57.390;-2.468;2022-09-01T09:32:57;1.05;;;1.00;;
22449;SDS011;11392;57.390;-2.468;2022-09-01T09:35:52;1.33;;;1.20;;
22449;SDS011;11392;57.390;-2.468;2022-09-01T09:38:21;1.90;;;1.10;;
22449;SDS011;11392;57.390;-2.468;2022-09-01T09:43:46;1.23;;;1.12;;
22449;SDS011;11392;57.390;-2.468;2022-09-01T09:46:37;0.90;;;0.90;;
22449;SDS011;11392;57.390;-2.468;2022-09-01T09:49:14;1.55;;;1.23;;
22449;SDS011;11392;57.390;-2.468;2022-09-01T09:54:29;1.02;;;1.02;;
22449;SDS011;11392;57.390;-2.468;2022-09-01T09:59:53;2.95;;;1.17;;
22449;SDS011;11392;57.390;-2.468;2022-09-01T10:02:53;1.48;;;1.30;;
22449;SDS011;11392;57.390;-2.468;2022-09-01T10:05:48;1.50;;;0.98;;
22449;SDS011;11392;57.390;-2.468;2022-09-01T10:10:53;1.52;;;1.40;;
22449;SDS011;11392;57.390;-2.468;2022-09-01T10:13:24;1.55;;;0.90;;
22449;SDS011;11392;57.390;-2.468;2022-09-01T10:16:02;0.95;;;0.90;;
22449;SDS011;11392;57.390;-2.468;2022-09-01T10:18:39;0.88;;;0.75;;
22449;SDS011;11392;57.390;-2.468;2022-09-01T10:21:32;1.10;;;1.00;;
22449;SDS011;11392;57.390;-2.468;2022-09-01T10:26:52;0.77;;;0.77;;
22449;SDS011;11392;57.390;-2.468;2022-09-01T10:29:42;1.48;;;0.85;;
22449;SDS011;11392;57.390;-2.468;2022-09-01T10:32:19;1.17;;;1.02;;
22449;SDS011;11392;57.390;-2.468;2022-09-01T10:35:09;2.15;;;0.90;;
22449;SDS011;11392;57.390;-2.468;2022-09-01T10:37:43;1.30;;;1.00;;
22449;SDS011;11392;57.390;-2.468;2022-09-01T10:40:14;0.95;;;0.90;;
22449;SDS011;11392;57.390;-2.468;2022-09-01T10:42:50;1.27;;;0.80;;
22449;SDS011;11392;57.390;-2.468;2022-09-01T10:45:33;0.75;;;0.70;;
22449;SDS011;11392;57.390;-2.468;2022-09-01T10:53:56;1.27;;;0.80;;
22449;SDS011;11392;57.390;-2.468;2022-09-01T10:56:42;1.60;;;0.85;;
22449;SDS011;11392;57.390;-2.468;2022-09-01T11:07:31;1.67;;;0.88;;
22449;SDS011;11392;57.390;-2.468;2022-09-01T11:15:42;1.20;;;0.77;;
22449;SDS011;11392;57.390;-2.468;2022-09-01T11:18:14;0.70;;;0.70;;
22449;SDS011;11392;57.390;-2.468;2022-09-01T11:20:44;0.93;;;0.85;;
22449;SDS011;11392;57.390;-2.468;2022-09-01T11:23:30;0.90;;;0.90;;
22449;SDS011;11392;57.390;-2.468;2022-09-01T11:25:58;0.80;;;0.80;;
22449;SDS011;11392;57.390;-2.468;2022-09-01T11:28:45;1.00;;;0.80;;
22449;SDS011;11392;57.390;-2.468;2022-09-01T11:31:15;1.40;;;0.77;;
22449;SDS011;11392;57.390;-2.468;2022-09-01T11:36:54;0.70;;;0.70;;
22449;SDS011;11392;57.390;-2.468;2022-09-01T11:39:31;1.15;;;0.90;;
22449;SDS011;11392;57.390;-2.468;2022-09-01T11:42:18;0.70;;;0.70;;
22449;SDS011;11392;57.390;-2.468;2022-09-01T11:44:53;1.98;;;0.80;;
22449;SDS011;11392;57.390;-2.468;2022-09-01T11:47:24;0.80;;;0.80;;
22449;SDS011;11392;57.390;-2.468;2022-09-01T11:50:06;1.55;;;0.80;;
22449;SDS011;11392;57.390;-2.468;2022-09-01T11:55:37;1.33;;;0.90;;
22449;SDS011;11392;57.390;-2.468;2022-09-01T11:58:09;0.85;;;0.85;;
22449;SDS011;11392;57.390;-2.468;2022-09-01T12:00:43;1.73;;;1.33;;
22449;SDS011;11392;57.390;-2.468;2022-09-01T12:03:21;1.05;;;0.80;;
22449;SDS011;11392;57.390;-2.468;2022-09-01T12:05:56;1.12;;;0.80;;
22449;SDS011;11392;57.390;-2.468;2022-09-01T12:08:28;1.58;;;0.80;;
22449;SDS011;11392;57.390;-2.468;2022-09-01T12:11:09;1.25;;;0.90;;
22449;SDS011;11392;57.390;-2.468;2022-09-01T12:13:53;1.77;;;0.73;;
22449;SDS011;11392;57.390;-2.468;2022-09-01T12:16:24;1.33;;;1.23;;
22449;SDS011;11392;57.390;-2.468;2022-09-01T12:18:52;1.08;;;0.95;;
22449;SDS011;11392;57.390;-2.468;2022-09-01T12:21:30;1.75;;;0.90;;
22449;SDS011;11392;57.390;-2.468;2022-09-01T12:26:59;1.00;;;1.00;;
22449;SDS011;11392;57.390;-2.468;2022-09-01T12:29:27;1.00;;;1.00;;
22449;SDS011;11392;57.390;-2.468;2022-09-01T12:31:57;2.72;;;1.08;;
22449;SDS011;11392;57.390;-2.468;2022-09-01T12:37:03;1.55;;;1.20;;
22449;SDS011;11392;57.390;-2.468;2022-09-01T12:39:45;1.20;;;1.10;;
22449;SDS011;11392;57.390;-2.468;2022-09-01T12:44:46;1.02;;;0.88;;
22449;SDS011;11392;57.390;-2.468;2022-09-01T12:48:02;0.73;;;0.73;;
22449;SDS011;11392;57.390;-2.468;2022-09-01T12:52:45;0.85;;;0.80;;
22449;SDS011;11392;57.390;-2.468;2022-09-01T12:55:18;0.95;;;0.95;;
22449;SDS011;11392;57.390;-2.468;2022-09-01T12:58:19;1.37;;;1.00;;
22449;SDS011;11392;57.390;-2.468;2022-09-01T13:00:56;1.02;;;1.00;;
22449;SDS011;11392;57.390;-2.468;2022-09-01T13:03:28;1.08;;;0.80;;
22449;SDS011;11392;57.390;-2.468;2022-09-01T13:06:00;0.70;;;0.70;;
22449;SDS011;11392;57.390;-2.468;2022-09-01T13:08:32;0.70;;;0.70;;
22449;SDS011;11392;57.390;-2.468;2022-09-01T13:11:07;0.60;;;0.60;;
22449;SDS011;11392;57.390;-2.468;2022-09-01T13:13:40;0.80;;;0.73;;
22449;SDS011;11392;57.390;-2.468;2022-09-01T13:16:08;0.93;;;0.65;;
22449;SDS011;11392;57.390;-2.468;2022-09-01T13:18:39;0.93;;;0.88;;
22449;SDS011;11392;57.390;-2.468;2022-09-01T13:21:28;0.70;;;0.70;;
22449;SDS011;11392;57.390;-2.468;2022-09-01T13:23:55;0.85;;;0.85;;
22449;SDS011;11392;57.390;-2.468;2022-09-01T13:26:26;0.55;;;0.50;;
22449;SDS011;11392;57.390;-2.468;2022-09-01T13:28:57;0.70;;;0.70;;
22449;SDS011;11392;57.390;-2.468;2022-09-01T13:31:24;0.70;;;0.70;;
22449;SDS011;11392;57.390;-2.468;2022-09-01T13:33:55;1.05;;;0.75;;
22449;SDS011;11392;57.390;-2.468;2022-09-01T13:36:42;0.77;;;0.77;;
22449;SDS011;11392;57.390;-2.468;2022-09-01T13:39:15;0.60;;;0.60;;
22449;SDS011;11392;57.390;-2.468;2022-09-01T13:41:43;0.82;;;0.80;;
22449;SDS011;11392;57.390;-2.468;2022-09-01T13:44:12;1.25;;;0.85;;
22449;SDS011;11392;57.390;-2.468;2022-09-01T13:46:39;0.62;;;0.62;;
22449;SDS011;11392;57.390;-2.468;2022-09-01T13:49:27;1.00;;;0.50;;
22449;SDS011;11392;57.390;-2.468;2022-09-01T13:52:14;0.60;;;0.60;;
22449;SDS011;11392;57.390;-2.468;2022-09-01T13:54:41;0.60;;;0.60;;
22449;SDS011;11392;57.390;-2.468;2022-09-01T13:57:10;1.85;;;0.80;;
22449;SDS011;11392;57.390;-2.468;2022-09-01T13:59:37;1.00;;;0.73;;
22449;SDS011;11392;57.390;-2.468;2022-09-01T14:02:04;2.37;;;0.90;;
22449;SDS011;11392;57.390;-2.468;2022-09-01T14:04:31;0.98;;;0.62;;
22449;SDS011;11392;57.390;-2.468;2022-09-01T14:06:58;0.90;;;0.70;;
22449;SDS011;11392;57.390;-2.468;2022-09-01T14:09:25;0.80;;;0.80;;
22449;SDS011;11392;57.390;-2.468;2022-09-01T14:11:53;0.80;;;0.70;;
22449;SDS011;11392;57.390;-2.468;2022-09-01T14:14:20;1.25;;;0.90;;
22449;SDS011;11392;57.390;-2.468;2022-09-01T14:16:48;0.80;;;0.80;;
22449;SDS011;11392;57.390;-2.468;2022-09-01T14:19:15;1.33;;;0.80;;
22449;SDS011;11392;57.390;-2.468;2022-09-01T14:21:42;1.00;;;0.80;;
22449;SDS011;11392;57.390;-2.468;2022-09-01T14:24:10;1.12;;;0.75;;
22449;SDS011;11392;57.390;-2.468;2022-09-01T14:26:39;2.67;;;0.90;;
22449;SDS011;11392;57.390;-2.468;2022-09-01T14:29:07;2.62;;;0.90;;
22449;SDS011;11392;57.390;-2.468;2022-09-01T14:31:34;1.30;;;0.80;;
22449;SDS011;11392;57.390;-2.468;2022-09-01T14:34:03;1.40;;;1.15;;
22449;SDS011;11392;57.390;-2.468;2022-09-01T14:36:31;0.98;;;0.90;;
22449;SDS011;11392;57.390;-2.468;2022-09-01T14:38:59;1.95;;;0.77;;
22449;SDS011;11392;57.390;-2.468;2022-09-01T14:41:26;1.77;;;1.17;;
22449;SDS011;11392;57.390;-2.468;2022-09-01T14:43:54;1.90;;;0.80;;
22449;SDS011;11392;57.390;-2.468;2022-09-01T14:46:29;1.12;;;0.98;;
22449;SDS011;11392;57.390;-2.468;2022-09-01T14:48:59;0.98;;;0.80;;
22449;SDS011;11392;57.390;-2.468;2022-09-01T14:51:28;1.05;;;0.90;;
22449;SDS011;11392;57.390;-2.468;2022-09-01T14:54:18;1.40;;;0.90;;
22449;SDS011;11392;57.390;-2.468;2022-09-01T14:56:45;2.00;;;1.27;;
22449;SDS011;11392;57.390;-2.468;2022-09-01T14:59:33;1.05;;;0.93;;
22449;SDS011;11392;57.390;-2.468;2022-09-01T15:02:00;2.53;;;1.10;;
22449;SDS011;11392;57.390;-2.468;2022-09-01T15:04:28;2.03;;;1.42;;
22449;SDS011;11392;57.390;-2.468;2022-09-01T15:06:55;1.58;;;0.88;;
22449;SDS011;11392;57.390;-2.468;2022-09-01T15:09:22;0.95;;;0.85;;
22449;SDS011;11392;57.390;-2.468;2022-09-01T15:11:49;1.40;;;0.90;;
22449;SDS011;11392;57.390;-2.468;2022-09-01T15:14:16;1.60;;;0.90;;
22449;SDS011;11392;57.390;-2.468;2022-09-01T15:16:43;1.42;;;1.08;;
22449;SDS011;11392;57.390;-2.468;2022-09-01T15:19:12;2.12;;;0.93;;
22449;SDS011;11392;57.390;-2.468;2022-09-01T15:21:41;1.85;;;0.80;;
22449;SDS011;11392;57.390;-2.468;2022-09-01T15:24:10;1.20;;;0.98;;
22449;SDS011;11392;57.390;-2.468;2022-09-01T15:26:38;2.12;;;1.00;;
22449;SDS011;11392;57.390;-2.468;2022-09-01T15:29:10;1.62;;;0.95;;
22449;SDS011;11392;57.390;-2.468;2022-09-01T15:31:40;1.02;;;0.80;;
22449;SDS011;11392;57.390;-2.468;2022-09-01T15:34:09;1.52;;;1.10;;
22449;SDS011;11392;57.390;-2.468;2022-09-01T15:36:37;1.37;;;0.88;;
22449;SDS011;11392;57.390;-2.468;2022-09-01T15:39:05;1.30;;;0.70;;
22449;SDS011;11392;57.390;-2.468;2022-09-01T15:41:34;1.77;;;1.00;;
22449;SDS011;11392;57.390;-2.468;2022-09-01T15:44:03;1.73;;;0.90;;
22449;SDS011;11392;57.390;-2.468;2022-09-01T15:46:32;1.50;;;1.30;;
22449;SDS011;11392;57.390;-2.468;2022-09-01T15:49:03;1.75;;;1.20;;
22449;SDS011;11392;57.390;-2.468;2022-09-01T15:51:32;1.80;;;1.20;;
22449;SDS011;11392;57.390;-2.468;2022-09-01T15:54:04;1.60;;;1.10;;
22449;SDS011;11392;57.390;-2.468;2022-09-01T15:56:33;0.88;;;0.80;;
22449;SDS011;11392;57.390;-2.468;2022-09-01T15:59:01;2.10;;;1.08;;
22449;SDS011;11392;57.390;-2.468;2022-09-01T16:01:31;1.42;;;0.82;;
22449;SDS011;11392;57.390;-2.468;2022-09-01T16:04:00;1.05;;;0.85;;
22449;SDS011;11392;57.390;-2.468;2022-09-01T16:06:27;1.35;;;1.12;;
22449;SDS011;11392;57.390;-2.468;2022-09-01T16:08:55;5.12;;;1.35;;
22449;SDS011;11392;57.390;-2.468;2022-09-01T16:11:23;1.27;;;1.10;;
22449;SDS011;11392;57.390;-2.468;2022-09-01T16:13:51;5.50;;;1.00;;
22449;SDS011;11392;57.390;-2.468;2022-09-01T16:16:30;1.27;;;1.05;;